Terminal Aerodrome Forecast
Issued by NWS Knoxville/Tri Cities, TN

Home | Current Version | Previous Version | Text Only | Print | Product List | Glossary On
Versions: 1 2 3 4 5 6 7 8 9 10 11 12 13 14 15 16 17 18 19 20 21 22 23 24
365
FTUS44 KMRX 202320
TAFTRI
TAF
KTRI 202320Z 2100/2124 00000KT P6SM BKN200
     FM211000 00000KT P6SM OVC100
     FM211500 24005KT P6SM -SHRA OVC045
     FM211700 25012KT P6SM -SHRA OVC020=

USA.gov is the U.S. government's official web portal to all federal, state and local government web resources and services.